Terminal Aerodrome Forecast
Issued by NWS Cleveland, OH

Home | Current Version | Previous Version | Graphics & Text | Print | Product List | Glossary Off
Versions: 1 2 3 4 5 6 7 8 9 10 11 12 13 14 15 16 17 18 19 20 21 22 23 24 25 26 27 28 29

000
FTUS41 KCLE 032151 AAE
TAFCLE
TAF AMD
KCLE 032151Z 0322/0424 01012KT P6SM SCT050 BKN150
      TEMPO 0322/0401 VRB12G35KT 3SM TSRA BR OVC025CB
     FM040100 VRB03KT P6SM VCSH SCT050
     FM040200 VRB03KT P6SM BKN120
      TEMPO 0410/0412 4SM BR
     FM041500 18005KT P6SM SCT060
     FM041800 01008KT P6SM SCT060=

USA.gov is the U.S. government's official web portal to all federal, state and local government web resources and services.